sensor_id;sensor_type;location;lat;lon;timestamp;P1;durP1;ratioP1;P2;durP2;ratioP2
54993;SDS011;40891;47.242;8.648;2023-04-24T00:02:11;1.33;;;1.00;;
54993;SDS011;40891;47.242;8.648;2023-04-24T00:04:37;0.87;;;0.77;;
54993;SDS011;40891;47.242;8.648;2023-04-24T00:07:06;1.43;;;0.70;;
54993;SDS011;40891;47.242;8.648;2023-04-24T00:09:32;1.17;;;0.67;;
54993;SDS011;40891;47.242;8.648;2023-04-24T00:11:58;2.77;;;1.13;;
54993;SDS011;40891;47.242;8.648;2023-04-24T00:14:23;1.60;;;0.90;;
54993;SDS011;40891;47.242;8.648;2023-04-24T00:16:49;1.03;;;0.90;;
54993;SDS011;40891;47.242;8.648;2023-04-24T00:19:14;1.97;;;1.00;;
54993;SDS011;40891;47.242;8.648;2023-04-24T00:21:40;0.80;;;0.80;;
54993;SDS011;40891;47.242;8.648;2023-04-24T00:24:06;1.80;;;1.13;;
54993;SDS011;40891;47.242;8.648;2023-04-24T00:26:33;3.70;;;0.80;;
54993;SDS011;40891;47.242;8.648;2023-04-24T00:28:59;0.83;;;0.80;;
54993;SDS011;40891;47.242;8.648;2023-04-24T00:31:25;1.03;;;0.80;;
54993;SDS011;40891;47.242;8.648;2023-04-24T00:33:50;2.43;;;0.70;;
54993;SDS011;40891;47.242;8.648;2023-04-24T00:36:15;2.07;;;0.80;;
54993;SDS011;40891;47.242;8.648;2023-04-24T00:38:41;1.43;;;1.10;;
54993;SDS011;40891;47.242;8.648;2023-04-24T00:41:06;0.93;;;0.60;;
54993;SDS011;40891;47.242;8.648;2023-04-24T00:43:32;1.00;;;0.70;;
54993;SDS011;40891;47.242;8.648;2023-04-24T00:45:57;0.70;;;0.67;;
54993;SDS011;40891;47.242;8.648;2023-04-24T00:48:24;2.20;;;0.60;;
54993;SDS011;40891;47.242;8.648;2023-04-24T00:50:50;1.80;;;0.60;;
54993;SDS011;40891;47.242;8.648;2023-04-24T00:53:15;1.13;;;0.50;;
54993;SDS011;40891;47.242;8.648;2023-04-24T00:55:40;1.47;;;0.70;;
54993;SDS011;40891;47.242;8.648;2023-04-24T00:58:06;0.60;;;0.60;;
54993;SDS011;40891;47.242;8.648;2023-04-24T01:00:32;0.60;;;0.60;;
54993;SDS011;40891;47.242;8.648;2023-04-24T01:02:58;0.40;;;0.40;;
54993;SDS011;40891;47.242;8.648;2023-04-24T01:05:24;1.00;;;0.80;;
54993;SDS011;40891;47.242;8.648;2023-04-24T01:07:50;0.70;;;0.60;;
54993;SDS011;40891;47.242;8.648;2023-04-24T01:10:16;0.40;;;0.40;;
54993;SDS011;40891;47.242;8.648;2023-04-24T01:12:42;2.60;;;0.60;;
54993;SDS011;40891;47.242;8.648;2023-04-24T01:15:08;0.87;;;0.33;;
54993;SDS011;40891;47.242;8.648;2023-04-24T01:17:34;0.73;;;0.40;;
54993;SDS011;40891;47.242;8.648;2023-04-24T01:20:00;1.47;;;0.60;;
54993;SDS011;40891;47.242;8.648;2023-04-24T01:22:26;0.53;;;0.50;;
54993;SDS011;40891;47.242;8.648;2023-04-24T01:24:52;0.40;;;0.40;;
54993;SDS011;40891;47.242;8.648;2023-04-24T01:27:18;0.80;;;0.47;;
54993;SDS011;40891;47.242;8.648;2023-04-24T01:29:44;0.47;;;0.47;;
54993;SDS011;40891;47.242;8.648;2023-04-24T01:32:10;1.80;;;0.60;;
54993;SDS011;40891;47.242;8.648;2023-04-24T01:34:35;1.23;;;0.50;;
54993;SDS011;40891;47.242;8.648;2023-04-24T01:37:02;1.03;;;0.50;;
54993;SDS011;40891;47.242;8.648;2023-04-24T01:39:27;0.90;;;0.50;;
54993;SDS011;40891;47.242;8.648;2023-04-24T01:41:53;0.63;;;0.60;;
54993;SDS011;40891;47.242;8.648;2023-04-24T01:44:19;0.50;;;0.50;;
54993;SDS011;40891;47.242;8.648;2023-04-24T01:46:45;0.60;;;0.60;;
54993;SDS011;40891;47.242;8.648;2023-04-24T01:49:11;0.73;;;0.50;;
54993;SDS011;40891;47.242;8.648;2023-04-24T01:51:36;0.97;;;0.80;;
54993;SDS011;40891;47.242;8.648;2023-04-24T01:54:02;0.83;;;0.50;;
54993;SDS011;40891;47.242;8.648;2023-04-24T01:56:29;0.70;;;0.50;;
54993;SDS011;40891;47.242;8.648;2023-04-24T01:58:57;0.70;;;0.60;;
54993;SDS011;40891;47.242;8.648;2023-04-24T02:01:24;0.80;;;0.70;;
54993;SDS011;40891;47.242;8.648;2023-04-24T02:03:50;0.87;;;0.60;;
54993;SDS011;40891;47.242;8.648;2023-04-24T02:06:15;0.67;;;0.60;;
54993;SDS011;40891;47.242;8.648;2023-04-24T02:08:41;0.73;;;0.70;;
54993;SDS011;40891;47.242;8.648;2023-04-24T02:11:08;0.50;;;0.50;;
54993;SDS011;40891;47.242;8.648;2023-04-24T02:13:33;1.00;;;0.73;;
54993;SDS011;40891;47.242;8.648;2023-04-24T02:15:59;0.67;;;0.63;;
54993;SDS011;40891;47.242;8.648;2023-04-24T02:18:24;0.47;;;0.40;;
54993;SDS011;40891;47.242;8.648;2023-04-24T02:20:49;0.83;;;0.57;;
54993;SDS011;40891;47.242;8.648;2023-04-24T02:23:15;1.10;;;0.80;;
54993;SDS011;40891;47.242;8.648;2023-04-24T02:25:40;0.53;;;0.40;;
54993;SDS011;40891;47.242;8.648;2023-04-24T02:28:06;0.50;;;0.50;;
54993;SDS011;40891;47.242;8.648;2023-04-24T02:30:31;1.13;;;0.53;;
54993;SDS011;40891;47.242;8.648;2023-04-24T02:32:57;1.23;;;0.50;;
54993;SDS011;40891;47.242;8.648;2023-04-24T02:35:22;2.10;;;0.60;;
54993;SDS011;40891;47.242;8.648;2023-04-24T02:37:47;1.13;;;0.50;;
54993;SDS011;40891;47.242;8.648;2023-04-24T02:40:13;1.53;;;0.40;;
54993;SDS011;40891;47.242;8.648;2023-04-24T02:42:38;0.50;;;0.50;;
54993;SDS011;40891;47.242;8.648;2023-04-24T02:45:03;0.30;;;0.30;;
54993;SDS011;40891;47.242;8.648;2023-04-24T02:47:30;0.50;;;0.40;;
54993;SDS011;40891;47.242;8.648;2023-04-24T02:49:55;0.47;;;0.40;;
54993;SDS011;40891;47.242;8.648;2023-04-24T02:52:20;1.13;;;0.40;;
54993;SDS011;40891;47.242;8.648;2023-04-24T02:54:46;0.33;;;0.33;;
54993;SDS011;40891;47.242;8.648;2023-04-24T02:57:11;0.43;;;0.43;;
54993;SDS011;40891;47.242;8.648;2023-04-24T02:59:36;0.70;;;0.30;;
54993;SDS011;40891;47.242;8.648;2023-04-24T03:02:02;0.40;;;0.30;;
54993;SDS011;40891;47.242;8.648;2023-04-24T03:04:27;0.30;;;0.30;;
54993;SDS011;40891;47.242;8.648;2023-04-24T03:06:52;0.57;;;0.37;;
54993;SDS011;40891;47.242;8.648;2023-04-24T03:09:20;0.30;;;0.30;;
54993;SDS011;40891;47.242;8.648;2023-04-24T03:11:45;0.30;;;0.30;;
54993;SDS011;40891;47.242;8.648;2023-04-24T03:14:11;0.30;;;0.30;;
54993;SDS011;40891;47.242;8.648;2023-04-24T03:16:36;0.30;;;0.30;;
54993;SDS011;40891;47.242;8.648;2023-04-24T03:19:02;0.43;;;0.30;;
54993;SDS011;40891;47.242;8.648;2023-04-24T03:21:27;0.20;;;0.20;;
54993;SDS011;40891;47.242;8.648;2023-04-24T03:23:52;0.30;;;0.30;;
54993;SDS011;40891;47.242;8.648;2023-04-24T03:26:18;0.30;;;0.30;;
54993;SDS011;40891;47.242;8.648;2023-04-24T03:28:43;2.13;;;0.40;;
54993;SDS011;40891;47.242;8.648;2023-04-24T03:31:08;0.30;;;0.30;;
54993;SDS011;40891;47.242;8.648;2023-04-24T03:33:34;0.47;;;0.47;;
54993;SDS011;40891;47.242;8.648;2023-04-24T03:35:59;0.50;;;0.40;;
54993;SDS011;40891;47.242;8.648;2023-04-24T03:38:24;0.30;;;0.30;;
54993;SDS011;40891;47.242;8.648;2023-04-24T03:40:50;0.30;;;0.30;;
54993;SDS011;40891;47.242;8.648;2023-04-24T03:43:15;0.30;;;0.30;;
54993;SDS011;40891;47.242;8.648;2023-04-24T03:45:40;0.30;;;0.30;;
54993;SDS011;40891;47.242;8.648;2023-04-24T03:48:06;1.53;;;0.30;;
54993;SDS011;40891;47.242;8.648;2023-04-24T03:50:32;0.40;;;0.40;;
54993;SDS011;40891;47.242;8.648;2023-04-24T03:52:57;0.40;;;0.40;;
54993;SDS011;40891;47.242;8.648;2023-04-24T03:55:23;0.60;;;0.30;;
54993;SDS011;40891;47.242;8.648;2023-04-24T03:57:48;0.43;;;0.30;;
54993;SDS011;40891;47.242;8.648;2023-04-24T04:00:14;0.53;;;0.30;;
54993;SDS011;40891;47.242;8.648;2023-04-24T04:02:40;0.63;;;0.30;;
54993;SDS011;40891;47.242;8.648;2023-04-24T04:05:05;0.30;;;0.30;;
54993;SDS011;40891;47.242;8.648;2023-04-24T04:07:31;0.93;;;0.30;;
54993;SDS011;40891;47.242;8.648;2023-04-24T04:09:56;0.30;;;0.30;;
54993;SDS011;40891;47.242;8.648;2023-04-24T04:12:21;1.23;;;0.30;;
54993;SDS011;40891;47.242;8.648;2023-04-24T04:14:47;0.30;;;0.30;;
54993;SDS011;40891;47.242;8.648;2023-04-24T04:17:12;0.30;;;0.30;;
54993;SDS011;40891;47.242;8.648;2023-04-24T04:19:37;0.30;;;0.30;;
54993;SDS011;40891;47.242;8.648;2023-04-24T04:22:02;0.70;;;0.30;;
54993;SDS011;40891;47.242;8.648;2023-04-24T04:24:28;0.30;;;0.30;;
54993;SDS011;40891;47.242;8.648;2023-04-24T04:26:53;0.30;;;0.30;;
54993;SDS011;40891;47.242;8.648;2023-04-24T04:29:21;0.30;;;0.30;;
54993;SDS011;40891;47.242;8.648;2023-04-24T04:31:47;0.30;;;0.30;;
54993;SDS011;40891;47.242;8.648;2023-04-24T04:34:13;0.30;;;0.30;;
54993;SDS011;40891;47.242;8.648;2023-04-24T04:36:39;0.30;;;0.30;;
54993;SDS011;40891;47.242;8.648;2023-04-24T04:39:05;0.30;;;0.30;;
54993;SDS011;40891;47.242;8.648;2023-04-24T04:41:31;1.17;;;0.37;;
54993;SDS011;40891;47.242;8.648;2023-04-24T04:43:56;0.30;;;0.30;;
54993;SDS011;40891;47.242;8.648;2023-04-24T04:46:23;1.43;;;0.30;;
54993;SDS011;40891;47.242;8.648;2023-04-24T04:48:50;0.30;;;0.30;;
54993;SDS011;40891;47.242;8.648;2023-04-24T04:51:16;0.90;;;0.40;;
54993;SDS011;40891;47.242;8.648;2023-04-24T04:53:41;0.47;;;0.40;;
54993;SDS011;40891;47.242;8.648;2023-04-24T04:56:06;0.30;;;0.30;;
54993;SDS011;40891;47.242;8.648;2023-04-24T04:58:32;0.30;;;0.30;;
54993;SDS011;40891;47.242;8.648;2023-04-24T05:00:58;0.40;;;0.40;;
54993;SDS011;40891;47.242;8.648;2023-04-24T05:03:24;0.83;;;0.43;;
54993;SDS011;40891;47.242;8.648;2023-04-24T05:05:49;0.70;;;0.40;;
54993;SDS011;40891;47.242;8.648;2023-04-24T05:08:14;1.40;;;0.47;;
54993;SDS011;40891;47.242;8.648;2023-04-24T05:10:40;1.73;;;0.47;;
54993;SDS011;40891;47.242;8.648;2023-04-24T05:13:05;0.50;;;0.30;;
54993;SDS011;40891;47.242;8.648;2023-04-24T05:15:30;1.47;;;0.30;;
54993;SDS011;40891;47.242;8.648;2023-04-24T05:17:56;0.37;;;0.37;;
54993;SDS011;40891;47.242;8.648;2023-04-24T05:20:21;1.90;;;0.30;;
54993;SDS011;40891;47.242;8.648;2023-04-24T05:22:46;0.57;;;0.40;;
54993;SDS011;40891;47.242;8.648;2023-04-24T05:25:11;0.67;;;0.33;;
54993;SDS011;40891;47.242;8.648;2023-04-24T05:27:37;0.40;;;0.40;;
54993;SDS011;40891;47.242;8.648;2023-04-24T05:30:03;3.30;;;0.50;;
54993;SDS011;40891;47.242;8.648;2023-04-24T05:32:29;0.57;;;0.30;;
54993;SDS011;40891;47.242;8.648;2023-04-24T05:34:55;0.87;;;0.30;;
54993;SDS011;40891;47.242;8.648;2023-04-24T05:37:20;0.70;;;0.50;;
54993;SDS011;40891;47.242;8.648;2023-04-24T05:39:45;1.03;;;0.33;;
54993;SDS011;40891;47.242;8.648;2023-04-24T05:42:11;1.37;;;0.40;;
54993;SDS011;40891;47.242;8.648;2023-04-24T05:44:36;0.90;;;0.40;;
54993;SDS011;40891;47.242;8.648;2023-04-24T05:47:01;0.67;;;0.50;;
54993;SDS011;40891;47.242;8.648;2023-04-24T05:49:27;0.70;;;0.40;;
54993;SDS011;40891;47.242;8.648;2023-04-24T05:51:52;0.93;;;0.43;;
54993;SDS011;40891;47.242;8.648;2023-04-24T05:54:17;0.43;;;0.40;;
54993;SDS011;40891;47.242;8.648;2023-04-24T05:56:43;0.60;;;0.60;;
54993;SDS011;40891;47.242;8.648;2023-04-24T05:59:08;1.03;;;0.50;;
54993;SDS011;40891;47.242;8.648;2023-04-24T06:01:33;1.00;;;0.50;;
54993;SDS011;40891;47.242;8.648;2023-04-24T06:03:59;0.80;;;0.60;;
54993;SDS011;40891;47.242;8.648;2023-04-24T06:06:25;0.63;;;0.40;;
54993;SDS011;40891;47.242;8.648;2023-04-24T06:08:50;1.20;;;0.50;;
54993;SDS011;40891;47.242;8.648;2023-04-24T06:11:16;0.50;;;0.50;;
54993;SDS011;40891;47.242;8.648;2023-04-24T06:13:41;0.50;;;0.50;;
54993;SDS011;40891;47.242;8.648;2023-04-24T06:16:07;0.57;;;0.53;;
54993;SDS011;40891;47.242;8.648;2023-04-24T06:18:32;0.67;;;0.57;;
54993;SDS011;40891;47.242;8.648;2023-04-24T06:20:58;1.30;;;0.50;;
54993;SDS011;40891;47.242;8.648;2023-04-24T06:23:23;0.90;;;0.57;;
54993;SDS011;40891;47.242;8.648;2023-04-24T06:25:48;2.03;;;0.90;;
54993;SDS011;40891;47.242;8.648;2023-04-24T06:28:15;2.03;;;0.73;;
54993;SDS011;40891;47.242;8.648;2023-04-24T06:30:40;1.13;;;0.80;;
54993;SDS011;40891;47.242;8.648;2023-04-24T06:33:07;2.37;;;1.03;;
54993;SDS011;40891;47.242;8.648;2023-04-24T06:35:32;0.80;;;0.73;;
54993;SDS011;40891;47.242;8.648;2023-04-24T06:37:58;2.47;;;0.80;;
54993;SDS011;40891;47.242;8.648;2023-04-24T06:40:23;2.87;;;1.00;;
54993;SDS011;40891;47.242;8.648;2023-04-24T06:42:49;1.17;;;0.93;;
54993;SDS011;40891;47.242;8.648;2023-04-24T06:45:15;3.07;;;1.07;;
54993;SDS011;40891;47.242;8.648;2023-04-24T06:47:40;1.40;;;0.87;;
54993;SDS011;40891;47.242;8.648;2023-04-24T06:50:05;1.03;;;0.90;;
54993;SDS011;40891;47.242;8.648;2023-04-24T06:52:31;1.30;;;1.00;;
54993;SDS011;40891;47.242;8.648;2023-04-24T06:55:03;1.40;;;0.90;;
54993;SDS011;40891;47.242;8.648;2023-04-24T06:57:29;0.90;;;0.80;;
54993;SDS011;40891;47.242;8.648;2023-04-24T06:59:55;0.90;;;0.83;;
54993;SDS011;40891;47.242;8.648;2023-04-24T07:02:21;1.17;;;0.83;;
54993;SDS011;40891;47.242;8.648;2023-04-24T07:04:46;2.70;;;1.43;;
54993;SDS011;40891;47.242;8.648;2023-04-24T07:07:12;2.23;;;1.00;;
54993;SDS011;40891;47.242;8.648;2023-04-24T07:09:39;2.23;;;1.10;;
54993;SDS011;40891;47.242;8.648;2023-04-24T07:12:07;1.30;;;0.90;;
54993;SDS011;40891;47.242;8.648;2023-04-24T07:14:36;2.27;;;0.77;;
54993;SDS011;40891;47.242;8.648;2023-04-24T07:17:02;2.70;;;1.20;;
54993;SDS011;40891;47.242;8.648;2023-04-24T07:19:28;2.70;;;0.80;;
54993;SDS011;40891;47.242;8.648;2023-04-24T07:21:53;1.77;;;0.90;;
54993;SDS011;40891;47.242;8.648;2023-04-24T07:24:20;3.23;;;1.00;;
54993;SDS011;40891;47.242;8.648;2023-04-24T07:26:45;2.87;;;1.03;;
54993;SDS011;40891;47.242;8.648;2023-04-24T07:29:12;3.30;;;1.10;;
54993;SDS011;40891;47.242;8.648;2023-04-24T07:31:38;3.80;;;0.80;;
54993;SDS011;40891;47.242;8.648;2023-04-24T07:34:03;2.30;;;0.97;;
54993;SDS011;40891;47.242;8.648;2023-04-24T07:36:29;2.50;;;1.23;;
54993;SDS011;40891;47.242;8.648;2023-04-24T07:38:55;3.03;;;1.00;;
54993;SDS011;40891;47.242;8.648;2023-04-24T07:41:21;3.93;;;1.33;;
54993;SDS011;40891;47.242;8.648;2023-04-24T07:43:47;4.33;;;1.13;;
54993;SDS011;40891;47.242;8.648;2023-04-24T07:46:12;2.73;;;1.30;;
54993;SDS011;40891;47.242;8.648;2023-04-24T07:48:37;3.07;;;1.23;;
54993;SDS011;40891;47.242;8.648;2023-04-24T07:51:03;3.20;;;0.90;;
54993;SDS011;40891;47.242;8.648;2023-04-24T07:53:28;3.77;;;1.00;;
54993;SDS011;40891;47.242;8.648;2023-04-24T07:55:54;1.10;;;0.90;;
54993;SDS011;40891;47.242;8.648;2023-04-24T07:58:20;1.73;;;1.17;;
54993;SDS011;40891;47.242;8.648;2023-04-24T08:00:46;2.20;;;1.00;;
54993;SDS011;40891;47.242;8.648;2023-04-24T08:03:11;3.30;;;1.23;;
54993;SDS011;40891;47.242;8.648;2023-04-24T08:05:37;2.37;;;1.13;;
54993;SDS011;40891;47.242;8.648;2023-04-24T08:08:03;1.77;;;1.07;;
54993;SDS011;40891;47.242;8.648;2023-04-24T08:10:28;1.60;;;1.03;;
54993;SDS011;40891;47.242;8.648;2023-04-24T08:12:54;2.87;;;1.10;;
54993;SDS011;40891;47.242;8.648;2023-04-24T08:15:20;4.00;;;1.30;;
54993;SDS011;40891;47.242;8.648;2023-04-24T08:17:46;2.63;;;1.10;;
54993;SDS011;40891;47.242;8.648;2023-04-24T08:20:11;1.47;;;0.90;;
54993;SDS011;40891;47.242;8.648;2023-04-24T08:22:41;5.40;;;1.33;;
54993;SDS011;40891;47.242;8.648;2023-04-24T08:25:12;1.30;;;0.90;;
54993;SDS011;40891;47.242;8.648;2023-04-24T08:27:37;2.63;;;1.20;;
54993;SDS011;40891;47.242;8.648;2023-04-24T08:30:04;3.53;;;1.10;;
54993;SDS011;40891;47.242;8.648;2023-04-24T08:32:30;9.07;;;1.67;;
54993;SDS011;40891;47.242;8.648;2023-04-24T08:34:55;4.50;;;1.10;;
54993;SDS011;40891;47.242;8.648;2023-04-24T08:37:22;2.73;;;1.20;;
54993;SDS011;40891;47.242;8.648;2023-04-24T08:39:48;2.10;;;1.57;;
54993;SDS011;40891;47.242;8.648;2023-04-24T08:42:14;2.63;;;1.20;;
54993;SDS011;40891;47.242;8.648;2023-04-24T08:44:41;2.23;;;1.20;;
54993;SDS011;40891;47.242;8.648;2023-04-24T08:47:07;4.43;;;1.40;;
54993;SDS011;40891;47.242;8.648;2023-04-24T08:49:33;3.13;;;1.10;;
54993;SDS011;40891;47.242;8.648;2023-04-24T08:52:01;3.00;;;1.17;;
54993;SDS011;40891;47.242;8.648;2023-04-24T08:54:28;1.63;;;1.10;;
54993;SDS011;40891;47.242;8.648;2023-04-24T08:56:53;2.08;;;1.02;;
54993;SDS011;40891;47.242;8.648;2023-04-24T08:59:26;1.37;;;1.03;;
54993;SDS011;40891;47.242;8.648;2023-04-24T09:01:52;1.83;;;1.10;;
54993;SDS011;40891;47.242;8.648;2023-04-24T09:04:19;2.73;;;1.40;;
54993;SDS011;40891;47.242;8.648;2023-04-24T09:06:47;3.13;;;1.20;;
54993;SDS011;40891;47.242;8.648;2023-04-24T09:09:13;2.40;;;1.20;;
54993;SDS011;40891;47.242;8.648;2023-04-24T09:11:41;3.00;;;1.40;;
54993;SDS011;40891;47.242;8.648;2023-04-24T09:14:07;1.77;;;1.20;;
54993;SDS011;40891;47.242;8.648;2023-04-24T09:16:35;3.92;;;1.55;;
54993;SDS011;40891;47.242;8.648;2023-04-24T09:19:00;3.38;;;1.05;;
54993;SDS011;40891;47.242;8.648;2023-04-24T09:21:27;6.70;;;1.67;;
54993;SDS011;40891;47.242;8.648;2023-04-24T09:23:58;2.43;;;1.40;;
54993;SDS011;40891;47.242;8.648;2023-04-24T09:26:31;1.70;;;1.30;;
54993;SDS011;40891;47.242;8.648;2023-04-24T09:29:00;4.30;;;1.50;;
54993;SDS011;40891;47.242;8.648;2023-04-24T09:31:29;3.50;;;1.60;;
54993;SDS011;40891;47.242;8.648;2023-04-24T09:33:55;2.00;;;1.33;;
54993;SDS011;40891;47.242;8.648;2023-04-24T09:36:39;2.70;;;1.73;;
54993;SDS011;40891;47.242;8.648;2023-04-24T09:39:07;2.43;;;1.70;;
54993;SDS011;40891;47.242;8.648;2023-04-24T09:41:35;5.23;;;1.53;;
54993;SDS011;40891;47.242;8.648;2023-04-24T09:44:13;3.23;;;1.53;;
54993;SDS011;40891;47.242;8.648;2023-04-24T09:46:40;6.10;;;1.90;;
54993;SDS011;40891;47.242;8.648;2023-04-24T09:49:16;2.35;;;1.30;;
54993;SDS011;40891;47.242;8.648;2023-04-24T09:51:47;2.47;;;1.25;;
54993;SDS011;40891;47.242;8.648;2023-04-24T09:54:19;5.03;;;1.45;;
54993;SDS011;40891;47.242;8.648;2023-04-24T09:56:50;3.15;;;1.67;;
54993;SDS011;40891;47.242;8.648;2023-04-24T09:59:19;2.17;;;1.58;;
54993;SDS011;40891;47.242;8.648;2023-04-24T10:01:45;3.20;;;1.33;;
54993;SDS011;40891;47.242;8.648;2023-04-24T10:06:43;6.05;;;1.70;;
54993;SDS011;40891;47.242;8.648;2023-04-24T10:09:09;2.80;;;1.38;;
54993;SDS011;40891;47.242;8.648;2023-04-24T10:11:37;2.63;;;1.40;;
54993;SDS011;40891;47.242;8.648;2023-04-24T10:14:02;5.95;;;1.67;;
54993;SDS011;40891;47.242;8.648;2023-04-24T10:16:28;3.92;;;1.50;;
54993;SDS011;40891;47.242;8.648;2023-04-24T10:18:55;4.88;;;1.65;;
54993;SDS011;40891;47.242;8.648;2023-04-24T10:21:24;3.30;;;1.67;;
54993;SDS011;40891;47.242;8.648;2023-04-24T10:23:51;2.30;;;1.73;;
54993;SDS011;40891;47.242;8.648;2023-04-24T10:26:18;1.77;;;1.30;;
54993;SDS011;40891;47.242;8.648;2023-04-24T10:28:44;2.25;;;1.23;;
54993;SDS011;40891;47.242;8.648;2023-04-24T10:31:11;2.15;;;1.40;;
54993;SDS011;40891;47.242;8.648;2023-04-24T10:33:37;2.05;;;1.02;;
54993;SDS011;40891;47.242;8.648;2023-04-24T10:36:06;5.53;;;1.50;;
54993;SDS011;40891;47.242;8.648;2023-04-24T10:38:34;2.20;;;1.30;;
54993;SDS011;40891;47.242;8.648;2023-04-24T10:41:11;2.20;;;1.30;;
54993;SDS011;40891;47.242;8.648;2023-04-24T10:43:48;2.43;;;1.17;;
54993;SDS011;40891;47.242;8.648;2023-04-24T10:46:29;1.70;;;1.10;;
54993;SDS011;40891;47.242;8.648;2023-04-24T10:48:55;1.58;;;1.00;;
54993;SDS011;40891;47.242;8.648;2023-04-24T10:51:22;1.58;;;1.10;;
54993;SDS011;40891;47.242;8.648;2023-04-24T10:53:49;1.13;;;1.03;;
54993;SDS011;40891;47.242;8.648;2023-04-24T10:56:16;3.07;;;1.43;;
54993;SDS011;40891;47.242;8.648;2023-04-24T10:58:42;1.70;;;1.10;;
54993;SDS011;40891;47.242;8.648;2023-04-24T11:01:26;5.37;;;1.30;;
54993;SDS011;40891;47.242;8.648;2023-04-24T11:03:56;2.67;;;1.20;;
54993;SDS011;40891;47.242;8.648;2023-04-24T11:06:30;1.73;;;0.97;;
54993;SDS011;40891;47.242;8.648;2023-04-24T11:09:04;2.53;;;1.20;;
54993;SDS011;40891;47.242;8.648;2023-04-24T11:11:31;2.23;;;1.20;;
54993;SDS011;40891;47.242;8.648;2023-04-24T11:21:44;4.50;;;1.23;;
54993;SDS011;40891;47.242;8.648;2023-04-24T11:24:28;2.20;;;1.30;;
54993;SDS011;40891;47.242;8.648;2023-04-24T11:27:13;2.47;;;1.30;;
54993;SDS011;40891;47.242;8.648;2023-04-24T11:34:56;1.92;;;1.08;;
54993;SDS011;40891;47.242;8.648;2023-04-24T11:37:24;4.35;;;1.35;;
54993;SDS011;40891;47.242;8.648;2023-04-24T11:39:52;1.42;;;0.98;;
54993;SDS011;40891;47.242;8.648;2023-04-24T11:42:19;1.95;;;1.20;;
54993;SDS011;40891;47.242;8.648;2023-04-24T11:44:46;4.57;;;1.33;;
54993;SDS011;40891;47.242;8.648;2023-04-24T11:47:12;2.28;;;1.20;;
54993;SDS011;40891;47.242;8.648;2023-04-24T11:49:38;5.30;;;1.48;;
54993;SDS011;40891;47.242;8.648;2023-04-24T11:52:04;3.25;;;1.30;;
54993;SDS011;40891;47.242;8.648;2023-04-24T11:54:30;2.85;;;1.48;;
54993;SDS011;40891;47.242;8.648;2023-04-24T11:56:55;1.98;;;1.27;;
54993;SDS011;40891;47.242;8.648;2023-04-24T11:59:22;4.85;;;1.48;;
54993;SDS011;40891;47.242;8.648;2023-04-24T12:01:47;3.30;;;1.40;;
54993;SDS011;40891;47.242;8.648;2023-04-24T12:04:14;1.95;;;1.55;;
54993;SDS011;40891;47.242;8.648;2023-04-24T12:06:40;3.88;;;1.45;;
54993;SDS011;40891;47.242;8.648;2023-04-24T12:09:43;3.47;;;1.45;;
54993;SDS011;40891;47.242;8.648;2023-04-24T12:12:10;1.77;;;1.30;;
54993;SDS011;40891;47.242;8.648;2023-04-24T12:14:58;4.80;;;1.63;;
54993;SDS011;40891;47.242;8.648;2023-04-24T12:17:27;2.58;;;1.17;;
54993;SDS011;40891;47.242;8.648;2023-04-24T12:19:59;1.95;;;1.20;;
54993;SDS011;40891;47.242;8.648;2023-04-24T12:22:27;2.10;;;1.48;;
54993;SDS011;40891;47.242;8.648;2023-04-24T12:25:00;2.45;;;1.30;;
54993;SDS011;40891;47.242;8.648;2023-04-24T12:27:26;3.00;;;1.50;;
54993;SDS011;40891;47.242;8.648;2023-04-24T12:29:56;2.85;;;1.50;;
54993;SDS011;40891;47.242;8.648;2023-04-24T12:32:23;1.88;;;1.23;;
54993;SDS011;40891;47.242;8.648;2023-04-24T12:34:50;6.35;;;1.40;;
54993;SDS011;40891;47.242;8.648;2023-04-24T12:37:16;1.52;;;1.20;;
54993;SDS011;40891;47.242;8.648;2023-04-24T12:42:44;3.63;;;1.42;;
54993;SDS011;40891;47.242;8.648;2023-04-24T12:45:11;2.70;;;0.95;;
54993;SDS011;40891;47.242;8.648;2023-04-24T12:47:38;2.17;;;1.15;;
54993;SDS011;40891;47.242;8.648;2023-04-24T12:50:04;3.75;;;1.10;;
54993;SDS011;40891;47.242;8.648;2023-04-24T12:52:30;1.40;;;1.10;;
54993;SDS011;40891;47.242;8.648;2023-04-24T12:54:57;5.40;;;1.30;;
54993;SDS011;40891;47.242;8.648;2023-04-24T12:57:24;3.90;;;1.17;;
54993;SDS011;40891;47.242;8.648;2023-04-24T12:59:52;1.73;;;1.20;;
54993;SDS011;40891;47.242;8.648;2023-04-24T13:02:19;3.30;;;1.50;;
54993;SDS011;40891;47.242;8.648;2023-04-24T13:04:44;4.53;;;1.70;;
54993;SDS011;40891;47.242;8.648;2023-04-24T13:07:11;5.25;;;1.70;;
54993;SDS011;40891;47.242;8.648;2023-04-24T13:09:37;3.90;;;1.40;;
54993;SDS011;40891;47.242;8.648;2023-04-24T13:12:03;3.58;;;1.65;;
54993;SDS011;40891;47.242;8.648;2023-04-24T13:14:30;3.03;;;1.50;;
54993;SDS011;40891;47.242;8.648;2023-04-24T13:16:56;5.82;;;1.60;;
54993;SDS011;40891;47.242;8.648;2023-04-24T13:19:21;4.85;;;1.70;;
54993;SDS011;40891;47.242;8.648;2023-04-24T13:21:49;7.82;;;1.60;;
54993;SDS011;40891;47.242;8.648;2023-04-24T13:24:14;3.40;;;1.50;;
54993;SDS011;40891;47.242;8.648;2023-04-24T13:26:40;5.18;;;1.30;;
54993;SDS011;40891;47.242;8.648;2023-04-24T13:29:06;2.65;;;1.35;;
54993;SDS011;40891;47.242;8.648;2023-04-24T13:31:31;2.88;;;1.20;;
54993;SDS011;40891;47.242;8.648;2023-04-24T13:33:56;2.17;;;1.20;;
54993;SDS011;40891;47.242;8.648;2023-04-24T13:36:22;3.13;;;1.40;;
54993;SDS011;40891;47.242;8.648;2023-04-24T13:38:47;2.78;;;1.20;;
54993;SDS011;40891;47.242;8.648;2023-04-24T13:41:12;4.18;;;1.73;;
54993;SDS011;40891;47.242;8.648;2023-04-24T13:43:38;3.53;;;1.40;;
54993;SDS011;40891;47.242;8.648;2023-04-24T13:46:03;4.32;;;1.50;;
54993;SDS011;40891;47.242;8.648;2023-04-24T13:48:29;3.17;;;1.08;;
54993;SDS011;40891;47.242;8.648;2023-04-24T13:50:55;1.75;;;1.38;;
54993;SDS011;40891;47.242;8.648;2023-04-24T13:53:20;2.38;;;1.38;;
54993;SDS011;40891;47.242;8.648;2023-04-24T13:55:46;3.35;;;1.52;;
54993;SDS011;40891;47.242;8.648;2023-04-24T13:58:11;2.47;;;1.50;;
54993;SDS011;40891;47.242;8.648;2023-04-24T14:00:36;3.50;;;1.42;;
54993;SDS011;40891;47.242;8.648;2023-04-24T14:03:02;2.60;;;1.40;;
54993;SDS011;40891;47.242;8.648;2023-04-24T14:05:27;2.30;;;1.20;;
54993;SDS011;40891;47.242;8.648;2023-04-24T14:07:53;4.25;;;1.38;;
54993;SDS011;40891;47.242;8.648;2023-04-24T14:10:18;1.40;;;0.90;;
54993;SDS011;40891;47.242;8.648;2023-04-24T14:12:44;2.63;;;1.50;;
54993;SDS011;40891;47.242;8.648;2023-04-24T14:15:09;3.17;;;1.00;;
54993;SDS011;40891;47.242;8.648;2023-04-24T14:17:35;3.15;;;1.10;;
54993;SDS011;40891;47.242;8.648;2023-04-24T14:20:00;2.50;;;1.33;;
54993;SDS011;40891;47.242;8.648;2023-04-24T14:22:26;4.45;;;1.20;;
54993;SDS011;40891;47.242;8.648;2023-04-24T14:24:52;3.67;;;1.55;;
54993;SDS011;40891;47.242;8.648;2023-04-24T14:27:17;2.63;;;1.38;;
54993;SDS011;40891;47.242;8.648;2023-04-24T14:29:42;1.67;;;1.20;;
54993;SDS011;40891;47.242;8.648;2023-04-24T14:32:10;5.40;;;1.30;;
54993;SDS011;40891;47.242;8.648;2023-04-24T14:34:35;2.53;;;1.40;;
54993;SDS011;40891;47.242;8.648;2023-04-24T14:37:01;2.03;;;1.30;;
54993;SDS011;40891;47.242;8.648;2023-04-24T14:39:26;2.22;;;1.45;;
54993;SDS011;40891;47.242;8.648;2023-04-24T14:41:51;3.25;;;1.52;;
54993;SDS011;40891;47.242;8.648;2023-04-24T14:44:17;3.63;;;1.58;;
54993;SDS011;40891;47.242;8.648;2023-04-24T14:46:42;1.98;;;1.30;;
54993;SDS011;40891;47.242;8.648;2023-04-24T14:49:08;2.63;;;1.58;;
54993;SDS011;40891;47.242;8.648;2023-04-24T14:51:35;2.63;;;1.60;;
54993;SDS011;40891;47.242;8.648;2023-04-24T14:54:03;4.75;;;1.90;;
54993;SDS011;40891;47.242;8.648;2023-04-24T14:56:28;3.70;;;1.70;;
54993;SDS011;40891;47.242;8.648;2023-04-24T14:58:54;2.10;;;1.50;;
54993;SDS011;40891;47.242;8.648;2023-04-24T15:01:20;2.35;;;1.42;;
54993;SDS011;40891;47.242;8.648;2023-04-24T15:03:46;3.05;;;1.55;;